createdAt,value
2018-12-12T00:01:57.297Z,95250.03
2018-12-12T00:04:27.949Z,95251.14
2018-12-12T00:06:58.696Z,95247.22
2018-12-12T00:09:29.300Z,95255.77
2018-12-12T00:12:00.103Z,95251.20
2018-12-12T00:14:30.394Z,95250.53
2018-12-12T00:17:01.432Z,95258.58
2018-12-12T00:19:32.144Z,95261.70
2018-12-12T00:22:02.922Z,95258.69
2018-12-12T00:24:33.451Z,95264.34
2018-12-12T00:27:04.204Z,95267.77
2018-12-12T00:29:36.249Z,95268.39
2018-12-12T00:32:07.084Z,95269.98
2018-12-12T00:34:37.604Z,95268.50
2018-12-12T00:37:07.969Z,95274.11
2018-12-12T00:39:40.413Z,95278.38
2018-12-12T00:42:11.715Z,95282.59
2018-12-12T00:44:42.552Z,95281.19
2018-12-12T00:47:13.738Z,95286.41
2018-12-12T00:49:45.747Z,95284.20
2018-12-12T00:52:16.867Z,95288.38
2018-12-12T00:54:47.591Z,95289.38
2018-12-12T00:57:18.829Z,95292.81
2018-12-12T00:59:50.091Z,95289.41
2018-12-12T01:02:20.630Z,95292.81
2018-12-12T01:04:51.179Z,95288.09
2018-12-12T01:07:22.585Z,95291.30
2018-12-12T01:09:54.108Z,95288.89
2018-12-12T01:12:24.823Z,95285.59
2018-12-12T01:14:55.723Z,95293.09
2018-12-12T01:17:26.644Z,95289.48
2018-12-12T01:19:57.642Z,95294.81
2018-12-12T01:22:28.281Z,95295.20
2018-12-12T01:24:59.014Z,95292.39
2018-12-12T01:27:29.731Z,95298.80
2018-12-12T01:30:00.401Z,95004.95
2018-12-12T01:32:31.112Z,95293.10
2018-12-12T01:35:01.681Z,95297.87
2018-12-12T01:37:33.319Z,95296.44
2018-12-12T01:40:05.686Z,95293.66
2018-12-12T01:42:36.291Z,95294.59
2018-12-12T01:45:07.438Z,95238.83
2018-12-12T01:47:38.336Z,95290.73
2018-12-12T01:50:09.580Z,95289.38
2018-12-12T01:52:40.154Z,95284.55
2018-12-12T01:55:10.916Z,95285.52
2018-12-12T01:57:41.604Z,95291.66
2018-12-12T02:00:12.744Z,95291.61
2018-12-12T02:02:43.376Z,95290.09
2018-12-12T02:05:13.962Z,95294.53
2018-12-12T02:07:44.999Z,95296.38
2018-12-12T02:10:16.179Z,95295.38
2018-12-12T02:12:53.071Z,95298.22
2018-12-12T02:15:24.800Z,95294.09
2018-12-12T02:17:55.049Z,95297.02
2018-12-12T02:20:27.079Z,95298.79
2018-12-12T02:22:58.044Z,95292.81
2018-12-12T02:25:29.459Z,95296.38
2018-12-12T02:27:59.366Z,95296.59
2018-12-12T02:30:30.253Z,95302.63
2018-12-12T02:33:00.800Z,95301.92
2018-12-12T02:35:31.395Z,95305.25
2018-12-12T02:38:01.991Z,95310.41
2018-12-12T02:40:33.048Z,95318.22
2018-12-12T02:43:03.918Z,95318.61
2018-12-12T02:45:34.986Z,95318.33
2018-12-12T02:48:06.055Z,95317.03
2018-12-12T02:50:37.079Z,95313.62
2018-12-12T02:53:08.099Z,95310.70
2018-12-12T02:55:39.090Z,95310.00
2018-12-12T02:58:09.790Z,95305.59
2018-12-12T03:00:40.653Z,95313.91
2018-12-12T03:03:11.054Z,95306.70
2018-12-12T03:05:41.990Z,95306.91
2018-12-12T03:08:12.875Z,95310.10
2018-12-12T03:10:44.342Z,95305.22
2018-12-12T03:13:14.929Z,95295.95
2018-12-12T03:15:45.449Z,95295.14
2018-12-12T03:18:16.341Z,95301.35
2018-12-12T03:20:47.869Z,95298.34
2018-12-12T03:23:18.660Z,95289.53
2018-12-12T03:25:49.217Z,95293.44
2018-12-12T03:28:20.025Z,95294.95
2018-12-12T03:30:51.364Z,95286.73
2018-12-12T03:33:22.091Z,95283.16
2018-12-12T03:35:52.579Z,95296.60
2018-12-12T03:38:23.523Z,95298.41
2018-12-12T03:40:56.458Z,95312.89
2018-12-12T03:43:26.962Z,95306.27
2018-12-12T03:45:57.899Z,95306.42
2018-12-12T03:48:28.304Z,95305.41
2018-12-12T03:50:59.713Z,95306.32
2018-12-12T03:53:30.608Z,95310.84
2018-12-12T03:56:01.426Z,95309.31
2018-12-12T03:58:33.300Z,95317.81
2018-12-12T04:01:04.472Z,95325.83
2018-12-12T04:03:35.289Z,95327.92
2018-12-12T04:06:06.022Z,95330.36
2018-12-12T04:08:36.706Z,95328.08
2018-12-12T04:11:07.773Z,95317.92
2018-12-12T04:13:38.525Z,95318.72
2018-12-12T04:16:09.616Z,95324.21
2018-12-12T04:18:41.044Z,95328.84
2018-12-12T04:21:12.295Z,95324.73
2018-12-12T04:23:42.765Z,95326.46
2018-12-12T04:26:13.956Z,95326.14
2018-12-12T04:28:44.604Z,95326.58
2018-12-12T04:31:15.689Z,95329.94
2018-12-12T04:33:46.504Z,95333.07
2018-12-12T04:36:17.168Z,95342.49
2018-12-12T04:38:47.712Z,95348.22
2018-12-12T04:41:19.385Z,95346.41
2018-12-12T04:43:49.970Z,95341.41
2018-12-12T04:46:20.500Z,95348.39
2018-12-12T04:48:51.478Z,95350.83
2018-12-12T04:51:22.658Z,95358.16
2018-12-12T04:53:53.687Z,95360.67
2018-12-12T04:56:24.572Z,95367.49
2018-12-12T04:58:55.907Z,95372.70
2018-12-12T05:01:27.065Z,95374.48
2018-12-12T05:03:58.272Z,95379.36
2018-12-12T05:06:29.256Z,95388.78
2018-12-12T05:08:59.680Z,95384.74
2018-12-12T05:11:30.607Z,95388.05
2018-12-12T05:14:01.849Z,95397.58
2018-12-12T05:16:32.323Z,95400.52
2018-12-12T05:19:03.220Z,95407.55
2018-12-12T05:21:34.374Z,95413.02
2018-12-12T05:24:05.499Z,95412.42
2018-12-12T05:26:36.407Z,95131.11
2018-12-12T05:29:07.139Z,95413.47
2018-12-12T05:31:37.669Z,95407.88
2018-12-12T05:34:08.685Z,95416.45
2018-12-12T05:36:39.277Z,95413.08
2018-12-12T05:39:10.140Z,95415.02
2018-12-12T05:41:41.392Z,95424.94
2018-12-12T05:44:12.014Z,95429.78
2018-12-12T05:46:43.075Z,95432.00
2018-12-12T05:49:13.055Z,95416.45
2018-12-12T05:51:43.498Z,95416.73
2018-12-12T05:54:14.470Z,95428.98
2018-12-12T05:56:45.305Z,95432.09
2018-12-12T05:59:15.963Z,95422.48
2018-12-12T06:01:47.048Z,95415.56
2018-12-12T06:04:17.430Z,95420.77
2018-12-12T06:06:47.885Z,95420.85
2018-12-12T06:09:18.389Z,95419.45
2018-12-12T06:11:49.684Z,95423.09
2018-12-12T06:14:20.224Z,95425.12
2018-12-12T06:16:50.171Z,95437.63
2018-12-12T06:19:19.898Z,95434.49
2018-12-12T06:21:51.548Z,95434.80
2018-12-12T06:24:22.288Z,95432.44
2018-12-12T06:26:53.125Z,95444.58
2018-12-12T06:29:23.883Z,95448.05
2018-12-12T06:31:54.558Z,95451.64
2018-12-12T06:34:25.165Z,95466.96
2018-12-12T06:36:56.225Z,95469.01
2018-12-12T06:39:26.858Z,95476.00
2018-12-12T06:41:58.370Z,95465.27
2018-12-12T06:44:29.014Z,95471.27
2018-12-12T06:46:59.676Z,95474.42
2018-12-12T06:49:30.374Z,95474.97
2018-12-12T06:52:01.371Z,95468.70
2018-12-12T06:54:31.809Z,95469.30
2018-12-12T06:57:02.687Z,95466.27
2018-12-12T06:59:33.196Z,95460.50
2018-12-12T07:02:04.221Z,95467.52
2018-12-12T07:04:34.679Z,95467.57
2018-12-12T07:07:05.808Z,95467.41
2018-12-12T07:09:36.230Z,95463.92
2018-12-12T07:12:07.648Z,95466.74
2018-12-12T07:14:38.161Z,95466.33
2018-12-12T07:17:08.688Z,95465.72
2018-12-12T07:19:39.581Z,95473.83
2018-12-12T07:22:10.750Z,95476.78
2018-12-12T07:24:41.764Z,95477.44
2018-12-12T07:27:12.609Z,95473.63
2018-12-12T07:29:43.109Z,95475.56
2018-12-12T07:32:14.302Z,95478.28
2018-12-12T07:34:44.240Z,95490.52
2018-12-12T07:37:14.067Z,95488.11
2018-12-12T07:39:44.025Z,95485.81
2018-12-12T07:42:14.457Z,95484.28
2018-12-12T07:44:44.419Z,95484.22
2018-12-12T07:47:14.477Z,95485.98
2018-12-12T07:49:44.526Z,95484.55
2018-12-12T07:52:14.644Z,95491.02
2018-12-12T07:54:44.375Z,95488.19
2018-12-12T07:57:14.223Z,95487.80
2018-12-12T07:59:44.144Z,95489.45
2018-12-12T08:02:14.115Z,95496.65
2018-12-12T08:04:44.067Z,95497.06
2018-12-12T08:07:14.045Z,95493.60
2018-12-12T08:09:43.976Z,95493.05
2018-12-12T08:12:14.426Z,95495.31
2018-12-12T08:14:44.273Z,95494.67
2018-12-12T08:17:14.286Z,95503.87
2018-12-12T08:19:44.848Z,95493.86
2018-12-12T08:22:16.411Z,95493.58
2018-12-12T08:24:47.205Z,95504.75
2018-12-12T08:27:18.167Z,95513.16
2018-12-12T08:29:48.615Z,95502.06
2018-12-12T08:32:20.590Z,95512.05
2018-12-12T08:34:51.002Z,95502.61
2018-12-12T08:37:21.882Z,95502.95
2018-12-12T08:39:52.482Z,95511.19
2018-12-12T08:42:23.709Z,95514.69
2018-12-12T08:44:54.366Z,95512.72
2018-12-12T08:47:25.204Z,95507.91
2018-12-12T08:49:55.899Z,95504.04
2018-12-12T08:52:26.530Z,95504.03
2018-12-12T08:54:57.052Z,95508.02
2018-12-12T08:57:27.857Z,95506.35
2018-12-12T08:59:58.426Z,95500.55
2018-12-12T09:02:29.143Z,95497.37
2018-12-12T09:04:59.775Z,95494.44
2018-12-12T09:07:30.541Z,95489.69
2018-12-12T09:10:01.140Z,95486.00
2018-12-12T09:12:32.893Z,95484.33
2018-12-12T09:15:03.447Z,95479.70
2018-12-12T09:17:34.042Z,95478.48
2018-12-12T09:20:04.584Z,95466.15
2018-12-12T09:22:35.200Z,95459.39
2018-12-12T09:25:05.934Z,95454.11
2018-12-12T09:27:36.506Z,95453.48
2018-12-12T09:30:07.106Z,95439.80
2018-12-12T09:32:37.960Z,95446.13
2018-12-12T09:35:08.676Z,95445.34
2018-12-12T09:37:39.227Z,95439.12
2018-12-12T09:40:10.028Z,95439.39
2018-12-12T09:42:40.700Z,95439.22
2018-12-12T09:45:11.906Z,95439.38
2018-12-12T09:47:43.109Z,95432.72
2018-12-12T09:50:13.860Z,95429.90
2018-12-12T09:52:45.665Z,95427.50
2018-12-12T09:55:16.553Z,95419.05
2018-12-12T09:57:47.158Z,95421.63
2018-12-12T10:00:17.774Z,95413.27
2018-12-12T10:02:49.816Z,95415.88
2018-12-12T10:05:20.926Z,95417.66
2018-12-12T10:07:51.484Z,95416.73
2018-12-12T10:10:21.923Z,95410.56
2018-12-12T10:12:53.208Z,95416.28
2018-12-12T10:15:24.340Z,95411.30
2018-12-12T10:17:55.087Z,95403.56
2018-12-12T10:20:25.574Z,95398.98
2018-12-12T10:22:56.650Z,95397.80
2018-12-12T10:25:27.118Z,95349.52
2018-12-12T10:27:57.688Z,95384.57
2018-12-12T10:30:28.591Z,95390.98
2018-12-12T10:33:00.268Z,95388.38
2018-12-12T10:35:31.500Z,95379.63
2018-12-12T10:38:02.351Z,95372.08
2018-12-12T10:40:33.729Z,95365.42
2018-12-12T10:43:04.813Z,95354.98
2018-12-12T10:45:35.403Z,95351.00
2018-12-12T10:48:06.134Z,95357.36
2018-12-12T10:50:36.540Z,95350.51
2018-12-12T10:53:09.658Z,95352.20
2018-12-12T10:55:40.700Z,95341.42
2018-12-12T10:58:11.477Z,95344.17
2018-12-12T11:00:46.355Z,95345.58
2018-12-12T11:03:21.800Z,95352.33
2018-12-12T11:05:52.318Z,95341.70
2018-12-12T11:08:22.840Z,95342.59
2018-12-12T11:10:53.485Z,95335.72
2018-12-12T11:13:23.908Z,95334.92
2018-12-12T11:15:54.644Z,95331.58
2018-12-12T11:18:24.959Z,95330.29
2018-12-12T11:20:56.038Z,95325.33
2018-12-12T11:23:26.278Z,95319.07
2018-12-12T11:25:56.808Z,95316.93
2018-12-12T11:28:27.542Z,95322.85
2018-12-12T11:30:58.272Z,95317.68
2018-12-12T11:33:28.932Z,95313.91
2018-12-12T11:35:59.240Z,95319.34
2018-12-12T11:38:29.792Z,95315.63
2018-12-12T11:41:01.349Z,95317.97
2018-12-12T11:43:32.099Z,95322.97
2018-12-12T11:46:02.523Z,95329.17
2018-12-12T11:48:32.883Z,95320.19
2018-12-12T11:51:04.496Z,95317.71
2018-12-12T11:53:34.872Z,95316.56
2018-12-12T11:56:05.199Z,95304.16
2018-12-12T11:58:35.491Z,95307.07
2018-12-12T12:01:07.216Z,95307.66
2018-12-12T12:03:37.714Z,95302.80
2018-12-12T12:06:08.413Z,95302.94
2018-12-12T12:08:39.003Z,95310.17
2018-12-12T12:11:10.651Z,95297.70
2018-12-12T12:13:41.364Z,95299.44
2018-12-12T12:16:11.874Z,95302.11
2018-12-12T12:18:42.107Z,95301.41
2018-12-12T12:21:13.050Z,95297.21
2018-12-12T12:23:43.381Z,95297.51
2018-12-12T12:26:14.388Z,95298.47
2018-12-12T12:28:44.873Z,95299.02
2018-12-12T12:31:16.469Z,95296.88
2018-12-12T12:33:46.572Z,95301.36
2018-12-12T12:36:16.389Z,95316.45
2018-12-12T12:38:46.311Z,95306.05
2018-12-12T12:41:17.492Z,95308.36
2018-12-12T12:43:47.453Z,95313.05
2018-12-12T12:46:17.282Z,95308.95
2018-12-12T12:48:47.251Z,95324.05
2018-12-12T12:51:17.062Z,95323.25
2018-12-12T12:53:47.303Z,95332.39
2018-12-12T12:56:18.183Z,95335.36
2018-12-12T12:58:48.694Z,95339.84
2018-12-12T13:01:19.986Z,95341.25
2018-12-12T13:03:50.667Z,95347.62
2018-12-12T13:06:20.544Z,95351.91
2018-12-12T13:08:50.305Z,95353.00
2018-12-12T13:11:20.197Z,95360.06
2018-12-12T13:13:50.181Z,95367.33
2018-12-12T13:16:20.177Z,95377.34
2018-12-12T13:18:50.100Z,95382.80
2018-12-12T13:21:20.066Z,95384.63
2018-12-12T13:23:49.966Z,95389.70
2018-12-12T13:26:19.950Z,95381.06
2018-12-12T13:28:49.857Z,95384.96
2018-12-12T13:31:19.803Z,95388.83
2018-12-12T13:33:49.641Z,95389.41
2018-12-12T13:36:19.594Z,95395.45
2018-12-12T13:38:50.627Z,95400.52
2018-12-12T13:41:20.847Z,95391.45
2018-12-12T13:43:50.682Z,95397.90
2018-12-12T13:46:20.604Z,95392.85
2018-12-12T13:48:50.591Z,95385.16
2018-12-12T13:51:20.654Z,95389.33
2018-12-12T13:53:50.545Z,95400.59
2018-12-12T13:56:20.408Z,95396.48
2018-12-12T13:58:50.354Z,95399.30
2018-12-12T14:01:20.384Z,95399.23
2018-12-12T14:03:50.259Z,95401.02
2018-12-12T14:06:20.119Z,95405.53
2018-12-12T14:08:50.079Z,95407.43
2018-12-12T14:11:20.016Z,95406.83
2018-12-12T14:13:49.809Z,95412.30
2018-12-12T14:16:20.202Z,95413.06
2018-12-12T14:18:50.960Z,95418.03
2018-12-12T14:21:21.826Z,95421.22
2018-12-12T14:23:52.576Z,95423.62
2018-12-12T14:26:23.173Z,95432.35
2018-12-12T14:28:53.852Z,95435.69
2018-12-12T14:31:25.294Z,95433.50
2018-12-12T14:33:56.326Z,95426.48
2018-12-12T14:36:26.960Z,95433.05
2018-12-12T14:38:57.803Z,95442.91
2018-12-12T14:41:29.057Z,95437.80
2018-12-12T14:44:00.292Z,95432.97
2018-12-12T14:46:31.093Z,95440.91
2018-12-12T14:49:01.889Z,95440.72
2018-12-12T14:51:34.358Z,95444.77
2018-12-12T14:54:04.641Z,95450.96
2018-12-12T14:56:35.144Z,95454.31
2018-12-12T14:59:05.894Z,95450.87
2018-12-12T15:01:37.907Z,95452.13
2018-12-12T15:04:09.021Z,95455.83
2018-12-12T15:06:40.016Z,95468.40
2018-12-12T15:09:09.984Z,95463.03
2018-12-12T15:11:40.331Z,95465.16
2018-12-12T15:14:11.202Z,95469.75
2018-12-12T15:16:41.829Z,95463.34
2018-12-12T15:19:12.531Z,95463.90
2018-12-12T15:21:44.044Z,95463.44
2018-12-12T15:24:15.431Z,95472.34
2018-12-12T15:26:46.203Z,95471.41
2018-12-12T15:29:16.431Z,95476.58
2018-12-12T15:31:48.227Z,95482.84
2018-12-12T15:34:19.332Z,95482.59
2018-12-12T15:36:50.108Z,95477.59
2018-12-12T15:39:20.764Z,95220.58
2018-12-12T15:41:53.083Z,95481.22
2018-12-12T15:44:23.726Z,95485.02
2018-12-12T15:46:54.751Z,95490.00
2018-12-12T15:49:26.243Z,95495.44
2018-12-12T15:51:57.558Z,95494.24
2018-12-12T15:54:28.034Z,95499.54
2018-12-12T15:56:59.832Z,95494.97
2018-12-12T15:59:31.125Z,95509.43
2018-12-12T16:02:02.061Z,95507.89
2018-12-12T16:04:32.603Z,95504.55
2018-12-12T16:07:02.982Z,95510.23
2018-12-12T16:09:33.518Z,95508.02
2018-12-12T16:12:05.706Z,95511.39
2018-12-12T16:14:36.095Z,95510.06
2018-12-12T16:17:06.639Z,95514.91
2018-12-12T16:19:37.552Z,95516.41
2018-12-12T16:22:09.135Z,95514.30
2018-12-12T16:24:40.326Z,95516.89
2018-12-12T16:27:10.887Z,95523.83
2018-12-12T16:29:41.134Z,95522.36
2018-12-12T16:32:12.870Z,95527.62
2018-12-12T16:34:44.175Z,95538.52
2018-12-12T16:37:14.961Z,95533.82
2018-12-12T16:39:45.273Z,95535.20
2018-12-12T16:42:16.123Z,95538.30
2018-12-12T16:44:47.440Z,95540.80
2018-12-12T16:47:17.556Z,95543.55
2018-12-12T16:49:47.991Z,95541.16
2018-12-12T16:52:20.239Z,95546.53
2018-12-12T16:54:49.810Z,95548.03
2018-12-12T16:57:20.871Z,95547.70
2018-12-12T16:59:51.690Z,95548.38
2018-12-12T17:02:23.190Z,95545.43
2018-12-12T17:04:53.734Z,95546.69
2018-12-12T17:07:24.698Z,95544.15
2018-12-12T17:09:55.075Z,95549.94
2018-12-12T17:12:26.334Z,95548.66
2018-12-12T17:14:57.291Z,95560.97
2018-12-12T17:17:28.160Z,95562.33
2018-12-12T17:19:59.215Z,95563.78
2018-12-12T17:22:30.734Z,95567.13
2018-12-12T17:25:01.442Z,95562.31
2018-12-12T17:27:32.706Z,95567.77
2018-12-12T17:30:03.475Z,95567.38
2018-12-12T17:32:34.319Z,95568.03
2018-12-12T17:35:08.875Z,95574.95
2018-12-12T17:37:37.893Z,95573.20
2018-12-12T17:40:08.560Z,95574.66
2018-12-12T17:42:39.494Z,95580.58
2018-12-12T17:45:10.021Z,95576.75
2018-12-12T17:47:40.305Z,95583.77
2018-12-12T17:50:10.849Z,95594.72
2018-12-12T17:52:41.985Z,95600.64
2018-12-12T17:55:12.178Z,95601.42
2018-12-12T17:57:42.831Z,95608.97
2018-12-12T18:00:13.800Z,95620.91
2018-12-12T18:02:44.596Z,95615.16
2018-12-12T18:05:15.329Z,95616.63
2018-12-12T18:07:45.260Z,95618.68
2018-12-12T18:10:15.912Z,95620.02
2018-12-12T18:12:49.991Z,95622.48
2018-12-12T18:15:20.594Z,95625.75
2018-12-12T18:17:51.258Z,95635.60
2018-12-12T18:20:21.779Z,95640.19
2018-12-12T18:22:53.047Z,95638.92
2018-12-12T18:25:23.642Z,95639.58
2018-12-12T18:27:54.174Z,95639.44
2018-12-12T18:30:24.791Z,95643.75
2018-12-12T18:32:56.445Z,95639.21
2018-12-12T18:35:27.137Z,95648.08
2018-12-12T18:37:57.272Z,95644.66
2018-12-12T18:40:27.744Z,95649.33
2018-12-12T18:42:59.382Z,95645.91
2018-12-12T18:45:30.274Z,95649.84
2018-12-12T18:48:00.905Z,95653.50
2018-12-12T18:50:31.987Z,95654.34
2018-12-12T18:53:03.499Z,95660.32
2018-12-12T18:55:34.230Z,95659.63
2018-12-12T18:58:05.372Z,95666.26
2018-12-12T19:00:36.310Z,95671.11
2018-12-12T19:03:07.849Z,95666.41
2018-12-12T19:05:38.644Z,95665.92
2018-12-12T19:08:09.332Z,95668.92
2018-12-12T19:10:40.713Z,95668.41
2018-12-12T19:13:12.643Z,95667.13
2018-12-12T19:15:43.240Z,95665.73
2018-12-12T19:18:14.032Z,95662.34
2018-12-12T19:20:44.874Z,95665.46
2018-12-12T19:23:15.902Z,95663.66
2018-12-12T19:25:46.723Z,95665.96
2018-12-12T19:28:17.527Z,95666.22
2018-12-12T19:30:48.371Z,95663.69
2018-12-12T19:33:19.698Z,95670.32
2018-12-12T19:35:50.144Z,95664.83
2018-12-12T19:38:21.731Z,95670.46
2018-12-12T19:40:52.390Z,95669.91
2018-12-12T19:43:24.165Z,95668.18
2018-12-12T19:45:55.040Z,95671.60
2018-12-12T19:48:25.648Z,95668.02
2018-12-12T19:50:56.171Z,95670.05
2018-12-12T19:53:26.793Z,95679.77
2018-12-12T19:55:57.453Z,95669.06
2018-12-12T19:58:28.722Z,95675.92
2018-12-12T20:00:59.257Z,95674.45
2018-12-12T20:03:30.316Z,95682.44
2018-12-12T20:06:01.002Z,95676.80
2018-12-12T20:08:31.844Z,95675.98
2018-12-12T20:11:02.053Z,95677.86
2018-12-12T20:13:33.606Z,95681.56
2018-12-12T20:16:04.398Z,95689.08
2018-12-12T20:18:34.976Z,95684.85
2018-12-12T20:21:05.398Z,95687.73
2018-12-12T20:23:36.378Z,95689.45
2018-12-12T20:26:06.796Z,95692.33
2018-12-12T20:28:37.358Z,95689.77
2018-12-12T20:31:07.899Z,95691.52
2018-12-12T20:33:38.454Z,95686.47
2018-12-12T20:36:09.091Z,95680.37
2018-12-12T20:38:39.388Z,95686.37
2018-12-12T20:41:09.719Z,95686.48
2018-12-12T20:43:41.033Z,95696.34
2018-12-12T20:46:11.357Z,95696.05
2018-12-12T20:48:41.847Z,95698.91
2018-12-12T20:51:12.452Z,95696.98
2018-12-12T20:53:43.259Z,95695.03
2018-12-12T20:56:13.802Z,95703.72
2018-12-12T20:58:44.423Z,95707.06
2018-12-12T21:01:14.845Z,95712.53
2018-12-12T21:03:45.843Z,95713.03
2018-12-12T21:06:16.555Z,95713.84
2018-12-12T21:08:46.833Z,95658.13
2018-12-12T21:11:17.156Z,95725.39
2018-12-12T21:13:48.964Z,95725.56
2018-12-12T21:16:19.422Z,95723.68
2018-12-12T21:18:50.062Z,95730.30
2018-12-12T21:21:20.988Z,95724.75
2018-12-12T21:23:52.211Z,95730.88
2018-12-12T21:26:23.233Z,95730.47
2018-12-12T21:28:53.981Z,95734.39
2018-12-12T21:31:24.717Z,95739.63
2018-12-12T21:33:55.495Z,95734.69
2018-12-12T21:36:26.053Z,95739.23
2018-12-12T21:38:56.655Z,95735.20
2018-12-12T21:41:27.298Z,95737.20
2018-12-12T21:43:58.603Z,95735.50
2018-12-12T21:46:28.902Z,95733.88
2018-12-12T21:48:59.296Z,95737.11
2018-12-12T21:51:29.742Z,95731.88
2018-12-12T21:54:00.255Z,95735.52
2018-12-12T21:56:30.872Z,95745.14
2018-12-12T21:59:01.484Z,95743.64
2018-12-12T22:01:31.736Z,95742.84
2018-12-12T22:04:02.552Z,95747.16
2018-12-12T22:06:33.082Z,95747.55
2018-12-12T22:09:05.509Z,95745.98
2018-12-12T22:11:36.004Z,95752.62
2018-12-12T22:14:06.942Z,95755.63
2018-12-12T22:16:37.575Z,95755.30
2018-12-12T22:19:08.071Z,95752.60
2018-12-12T22:21:38.402Z,95755.03
2018-12-12T22:24:09.813Z,95749.61
2018-12-12T22:26:40.370Z,95762.55
2018-12-12T22:29:10.934Z,95759.02
2018-12-12T22:31:41.593Z,95753.30
2018-12-12T22:34:12.503Z,95750.59
2018-12-12T22:36:43.041Z,95751.66
2018-12-12T22:39:13.673Z,95753.56
2018-12-12T22:41:44.478Z,95754.47
2018-12-12T22:44:16.839Z,95752.72
2018-12-12T22:46:47.156Z,95743.60
2018-12-12T22:49:17.479Z,95745.38
2018-12-12T22:51:47.824Z,95744.23
2018-12-12T22:54:18.684Z,95744.10
2018-12-12T22:56:48.720Z,95744.59
2018-12-12T22:59:19.096Z,95750.86
2018-12-12T23:01:49.229Z,95748.15
2018-12-12T23:04:20.166Z,95749.96
2018-12-12T23:06:50.421Z,95747.87
2018-12-12T23:09:21.038Z,95517.39
2018-12-12T23:11:51.620Z,95750.35
2018-12-12T23:14:22.803Z,95746.19
2018-12-12T23:16:53.306Z,95738.88
2018-12-12T23:19:23.646Z,95741.05
2018-12-12T23:21:54.057Z,95739.84
2018-12-12T23:24:25.233Z,95738.34
2018-12-12T23:26:55.963Z,95745.48
2018-12-12T23:29:26.799Z,95741.39
2018-12-12T23:31:57.498Z,95739.44
2018-12-12T23:34:28.383Z,95741.56
2018-12-12T23:36:58.683Z,95739.55
2018-12-12T23:39:29.396Z,95737.00
2018-12-12T23:41:59.967Z,95730.59
2018-12-12T23:44:31.750Z,95742.61
2018-12-12T23:47:02.298Z,95738.56
2018-12-12T23:49:32.854Z,95738.13
2018-12-12T23:52:03.240Z,95736.76
2018-12-12T23:54:33.987Z,95743.66
2018-12-12T23:57:04.561Z,95744.55
2018-12-12T23:59:35.619Z,95750.87
